createdAt,value
2023-03-10T00:00:39.962Z,12.00
2023-03-10T00:03:07.525Z,11.70
2023-03-10T00:05:34.630Z,11.63
2023-03-10T00:08:01.576Z,12.52
2023-03-10T00:10:28.654Z,11.93
2023-03-10T00:12:55.640Z,12.43
2023-03-10T00:15:23.657Z,13.75
2023-03-10T00:17:50.712Z,13.15
2023-03-10T00:20:17.931Z,11.68
2023-03-10T00:22:44.921Z,12.18
2023-03-10T00:25:12.819Z,12.70
2023-03-10T00:27:39.714Z,12.40
2023-03-10T00:30:07.579Z,12.85
2023-03-10T00:32:36.098Z,12.50
2023-03-10T00:35:05.404Z,12.48
2023-03-10T00:37:32.326Z,12.32
2023-03-10T00:39:59.240Z,12.63
2023-03-10T00:42:27.420Z,12.90
2023-03-10T00:44:54.412Z,12.38
2023-03-10T00:47:22.971Z,14.35
2023-03-10T00:49:50.865Z,12.82
2023-03-10T00:52:18.030Z,13.50
2023-03-10T00:54:45.155Z,13.80
2023-03-10T00:57:12.084Z,14.05
2023-03-10T00:59:50.131Z,14.02
2023-03-10T01:02:19.631Z,14.13
2023-03-10T01:04:47.547Z,13.85
2023-03-10T01:07:14.577Z,13.30
2023-03-10T01:09:42.800Z,12.68
2023-03-10T01:12:09.850Z,13.60
2023-03-10T01:14:37.156Z,12.93
2023-03-10T01:17:05.426Z,14.07
2023-03-10T01:19:32.485Z,13.27
2023-03-10T01:22:01.504Z,13.32
2023-03-10T01:24:28.453Z,12.70
2023-03-10T01:26:55.441Z,12.65
2023-03-10T01:29:22.422Z,13.55
2023-03-10T01:31:49.417Z,14.02
2023-03-10T01:34:16.413Z,13.32
2023-03-10T01:36:43.429Z,13.60
2023-03-10T01:39:10.405Z,15.30
2023-03-10T01:41:41.310Z,13.30
2023-03-10T01:44:17.049Z,12.98
2023-03-10T01:46:50.034Z,13.55
2023-03-10T01:49:26.541Z,12.85
2023-03-10T01:52:00.151Z,13.40
2023-03-10T01:54:44.727Z,13.52
2023-03-10T01:57:13.496Z,13.13
2023-03-10T01:59:41.207Z,13.60
2023-03-10T02:02:09.482Z,13.73
2023-03-10T02:04:45.605Z,13.60
2023-03-10T02:07:14.239Z,13.00
2023-03-10T02:09:44.712Z,12.68
2023-03-10T02:12:15.044Z,13.25
2023-03-10T02:14:46.766Z,14.35
2023-03-10T02:17:19.513Z,13.93
2023-03-10T02:20:05.304Z,13.77
2023-03-10T02:22:32.903Z,13.95
2023-03-10T02:25:38.841Z,13.40
2023-03-10T02:28:06.801Z,14.07
2023-03-10T02:30:40.147Z,14.00
2023-03-10T02:33:13.953Z,13.75
2023-03-10T02:35:41.075Z,14.05
2023-03-10T02:38:12.527Z,14.98
2023-03-10T02:40:46.660Z,14.15
2023-03-10T02:43:20.480Z,15.45
2023-03-10T02:45:51.977Z,15.38
2023-03-10T02:48:28.184Z,15.10
2023-03-10T02:50:57.356Z,13.70
2023-03-10T02:53:26.822Z,15.15
2023-03-10T02:55:55.376Z,14.77
2023-03-10T02:58:26.414Z,15.25
2023-03-10T03:00:53.383Z,14.75
2023-03-10T03:03:22.252Z,14.82
2023-03-10T03:05:49.978Z,14.48
2023-03-10T03:08:19.012Z,14.43
2023-03-10T03:10:46.055Z,14.80
2023-03-10T03:13:13.736Z,14.63
2023-03-10T03:15:41.350Z,14.35
2023-03-10T03:18:09.473Z,14.95
2023-03-10T03:20:40.871Z,14.40
2023-03-10T03:23:08.918Z,14.43
2023-03-10T03:25:39.062Z,14.48
2023-03-10T03:28:08.133Z,15.48
2023-03-10T03:30:36.265Z,14.73
2023-03-10T03:33:06.060Z,14.55
2023-03-10T03:35:35.597Z,14.98
2023-03-10T03:38:04.117Z,15.02
2023-03-10T03:40:33.626Z,15.20
2023-03-10T03:43:02.183Z,15.52
2023-03-10T03:45:32.230Z,14.85
2023-03-10T03:48:00.556Z,14.43
2023-03-10T03:50:30.219Z,14.85
2023-03-10T03:53:03.406Z,14.52
2023-03-10T03:55:31.532Z,14.07
2023-03-10T03:57:59.255Z,15.65
2023-03-10T04:00:26.502Z,14.88
2023-03-10T04:03:04.445Z,16.05
2023-03-10T04:05:33.344Z,15.13
2023-03-10T04:08:01.233Z,16.17
2023-03-10T04:10:30.087Z,15.40
2023-03-10T04:12:57.573Z,14.98
2023-03-10T04:15:26.043Z,15.20
2023-03-10T04:17:53.262Z,14.95
2023-03-10T04:20:20.720Z,15.88
2023-03-10T04:22:50.217Z,15.32
2023-03-10T04:25:19.281Z,15.57
2023-03-10T04:27:46.892Z,15.77
2023-03-10T04:30:15.169Z,14.98
2023-03-10T04:32:48.736Z,15.43
2023-03-10T04:35:16.819Z,15.95
2023-03-10T04:37:44.942Z,14.98
2023-03-10T04:40:14.629Z,15.15
2023-03-10T04:42:42.282Z,16.08
2023-03-10T04:45:10.309Z,15.88
2023-03-10T04:47:38.314Z,15.60
2023-03-10T04:50:06.640Z,14.52
2023-03-10T04:52:35.062Z,15.90
2023-03-10T04:55:03.033Z,16.30
2023-03-10T04:57:30.005Z,15.40
2023-03-10T04:59:57.038Z,14.68
2023-03-10T05:02:24.102Z,16.15
2023-03-10T05:04:51.837Z,17.33
2023-03-10T05:07:21.412Z,15.75
2023-03-10T05:09:49.954Z,17.70
2023-03-10T05:12:17.179Z,15.88
2023-03-10T05:14:44.420Z,16.15
2023-03-10T05:17:11.920Z,17.17
2023-03-10T05:19:39.638Z,16.95
2023-03-10T05:22:08.033Z,16.58
2023-03-10T05:24:36.965Z,16.63
2023-03-10T05:27:04.102Z,16.00
2023-03-10T05:29:31.796Z,16.58
2023-03-10T05:32:11.458Z,16.70
2023-03-10T05:34:40.542Z,17.80
2023-03-10T05:37:07.480Z,17.92
2023-03-10T05:39:34.662Z,17.55
2023-03-10T05:42:06.230Z,17.00
2023-03-10T05:44:34.965Z,17.23
2023-03-10T05:47:04.840Z,18.25
2023-03-10T05:49:32.310Z,18.50
2023-03-10T05:51:59.683Z,18.02
2023-03-10T05:54:27.421Z,18.33
2023-03-10T05:56:54.479Z,18.73
2023-03-10T05:59:25.898Z,18.45
2023-03-10T06:01:53.990Z,18.52
2023-03-10T06:04:21.186Z,18.67
2023-03-10T06:06:48.999Z,19.40
2023-03-10T06:09:16.092Z,18.17
2023-03-10T06:11:43.076Z,17.73
2023-03-10T06:14:10.101Z,19.08
2023-03-10T06:16:37.055Z,18.30
2023-03-10T06:19:04.035Z,18.25
2023-03-10T06:21:30.964Z,17.50
2023-03-10T06:23:59.160Z,18.50
2023-03-10T06:26:26.101Z,17.90
2023-03-10T06:28:53.039Z,18.15
2023-03-10T06:31:24.528Z,20.65
2023-03-10T06:33:52.272Z,18.02
2023-03-10T06:36:20.304Z,18.70
2023-03-10T06:38:47.730Z,18.55
2023-03-10T06:41:16.764Z,18.35
2023-03-10T06:43:44.184Z,18.83
2023-03-10T06:46:12.523Z,19.00
2023-03-10T06:48:40.484Z,17.52
2023-03-10T06:51:09.767Z,18.95
2023-03-10T06:53:37.343Z,17.60
2023-03-10T06:56:05.961Z,18.35
2023-03-10T06:58:34.616Z,19.33
2023-03-10T07:01:01.958Z,19.52
2023-03-10T07:03:29.265Z,18.58
2023-03-10T07:05:59.900Z,18.05
2023-03-10T07:08:30.413Z,17.55
2023-03-10T07:10:58.227Z,19.15
2023-03-10T07:13:25.241Z,18.70
2023-03-10T07:15:52.160Z,18.17
2023-03-10T07:18:19.454Z,18.20
2023-03-10T07:20:48.176Z,19.85
2023-03-10T07:23:15.649Z,19.30
2023-03-10T07:25:42.636Z,20.35
2023-03-10T07:28:09.697Z,19.83
2023-03-10T07:30:38.925Z,20.90
2023-03-10T07:33:06.108Z,20.08
2023-03-10T07:35:35.525Z,20.27
2023-03-10T07:38:04.687Z,20.02
2023-03-10T07:40:31.764Z,20.48
2023-03-10T07:42:59.049Z,25.83
2023-03-10T07:45:28.169Z,26.98
2023-03-10T07:47:55.440Z,31.67
2023-03-10T07:50:22.451Z,31.98
2023-03-10T07:52:49.687Z,49.42
2023-03-10T07:55:17.116Z,39.45
2023-03-10T07:57:44.246Z,29.33
2023-03-10T08:00:11.842Z,30.38
2023-03-10T08:02:42.122Z,30.83
2023-03-10T08:05:10.640Z,23.60
2023-03-10T08:07:38.218Z,19.00
2023-03-10T08:10:06.061Z,16.88
2023-03-10T08:12:34.138Z,18.33
2023-03-10T08:15:01.190Z,19.15
2023-03-10T08:17:31.029Z,19.25
2023-03-10T08:19:58.732Z,19.20
2023-03-10T08:22:26.793Z,18.90
2023-03-10T08:24:54.398Z,21.60
2023-03-10T08:27:21.770Z,20.30
2023-03-10T08:29:48.720Z,18.88
2023-03-10T08:32:15.845Z,18.40
2023-03-10T08:34:44.252Z,19.10
2023-03-10T08:37:11.821Z,20.02
2023-03-10T08:39:38.993Z,17.02
2023-03-10T08:42:06.096Z,15.30
2023-03-10T08:44:33.155Z,14.75
2023-03-10T08:47:00.383Z,14.10
2023-03-10T08:49:27.451Z,14.30
2023-03-10T08:52:00.589Z,15.10
2023-03-10T08:54:28.556Z,14.60
2023-03-10T08:56:56.533Z,15.40
2023-03-10T08:59:23.494Z,14.73
2023-03-10T09:01:50.660Z,17.38
2023-03-10T09:04:17.927Z,16.30
2023-03-10T09:06:44.893Z,17.13
2023-03-10T09:09:12.509Z,17.15
2023-03-10T09:11:40.961Z,17.27
2023-03-10T09:14:10.565Z,17.77
2023-03-10T09:16:40.440Z,17.17
2023-03-10T09:19:07.763Z,16.02
2023-03-10T09:21:34.857Z,16.50
2023-03-10T09:24:04.638Z,16.77
2023-03-10T09:26:32.034Z,15.55
2023-03-10T09:29:01.080Z,14.77
2023-03-10T09:31:36.782Z,14.63
2023-03-10T09:34:04.609Z,16.15
2023-03-10T09:36:32.949Z,14.18
2023-03-10T09:39:00.811Z,14.68
2023-03-10T09:41:51.808Z,12.43
2023-03-10T09:44:43.554Z,12.48
2023-03-10T10:00:11.082Z,11.20
2023-03-10T16:25:37.129Z,16.65
2023-03-10T16:28:04.358Z,16.73
2023-03-10T16:30:31.347Z,17.52
2023-03-10T16:33:01.594Z,18.02
2023-03-10T16:35:30.154Z,17.17
2023-03-10T16:38:00.515Z,17.58
2023-03-10T16:40:27.493Z,17.90
2023-03-10T16:42:54.396Z,17.83
2023-03-10T16:45:21.456Z,18.05
2023-03-10T16:47:49.274Z,18.80
2023-03-10T16:50:16.662Z,18.35
2023-03-10T16:52:44.118Z,18.55
2023-03-10T16:55:18.883Z,17.70
2023-03-10T16:57:46.210Z,19.38
2023-03-10T17:00:15.042Z,19.17
2023-03-10T17:02:43.019Z,19.42
2023-03-10T17:05:10.352Z,18.73
2023-03-10T17:07:53.352Z,19.05
2023-03-10T17:10:22.478Z,19.20
2023-03-10T17:12:49.497Z,18.52
2023-03-10T17:15:16.527Z,20.23
2023-03-10T17:17:43.502Z,18.38
2023-03-10T17:20:10.987Z,18.70
2023-03-10T17:22:39.073Z,19.50
2023-03-10T17:25:06.579Z,19.90
2023-03-10T17:27:33.501Z,19.08
2023-03-10T17:30:00.664Z,20.23
2023-03-10T17:32:28.423Z,19.38
2023-03-10T17:34:55.530Z,20.17
2023-03-10T17:37:22.611Z,19.75
2023-03-10T17:39:49.646Z,20.17
2023-03-10T17:42:16.728Z,20.15
2023-03-10T17:44:43.667Z,20.13
2023-03-10T17:47:12.311Z,19.75
2023-03-10T17:49:41.047Z,18.85
2023-03-10T17:52:08.302Z,20.67
2023-03-10T17:54:35.358Z,20.30
2023-03-10T17:57:02.445Z,21.23
2023-03-10T17:59:31.254Z,22.27
2023-03-10T18:01:58.931Z,22.92
2023-03-10T18:04:29.951Z,21.60
2023-03-10T18:06:57.439Z,21.88
2023-03-10T18:09:24.342Z,28.27
2023-03-10T18:11:51.308Z,26.60
2023-03-10T18:14:18.289Z,25.42
2023-03-10T18:16:45.268Z,24.63
2023-03-10T18:19:12.601Z,24.48
2023-03-10T18:21:39.757Z,24.23
2023-03-10T18:24:08.351Z,23.42
2023-03-10T18:26:37.001Z,23.40
2023-03-10T18:29:05.036Z,25.27
2023-03-10T18:31:34.479Z,24.83
2023-03-10T18:34:01.972Z,22.77
2023-03-10T18:36:30.087Z,24.23
2023-03-10T18:38:57.621Z,21.63
2023-03-10T18:41:27.435Z,22.48
2023-03-10T18:43:54.377Z,23.33
2023-03-10T18:46:22.505Z,22.27
2023-03-10T18:48:55.431Z,23.20
2023-03-10T18:51:27.802Z,23.80
2023-03-10T18:53:55.322Z,22.30
2023-03-10T18:56:25.762Z,23.33
2023-03-10T18:58:53.682Z,23.08
2023-03-10T19:01:20.756Z,24.70
2023-03-10T19:03:47.762Z,25.42
2023-03-10T19:06:14.798Z,24.58
2023-03-10T19:08:41.927Z,26.38
2023-03-10T19:11:09.274Z,23.40
2023-03-10T19:13:40.421Z,23.25
2023-03-10T19:16:09.829Z,23.00
2023-03-10T19:18:37.323Z,23.33
2023-03-10T19:21:04.689Z,21.15
2023-03-10T19:23:33.979Z,20.63
2023-03-10T19:26:01.063Z,20.88
2023-03-10T19:28:38.327Z,20.60
2023-03-10T19:31:10.683Z,19.40
2023-03-10T19:33:39.851Z,18.05
2023-03-10T19:36:11.806Z,19.48
2023-03-10T19:38:39.650Z,19.90
2023-03-10T19:41:11.150Z,19.80
2023-03-10T19:43:38.161Z,18.58
2023-03-10T19:46:07.985Z,17.35
2023-03-10T19:48:35.692Z,19.25
2023-03-10T19:51:05.601Z,20.08
2023-03-10T19:53:33.718Z,19.00
2023-03-10T19:56:07.857Z,18.02
2023-03-10T19:58:35.004Z,19.20
2023-03-10T20:01:02.274Z,18.85
2023-03-10T20:03:31.905Z,19.20
2023-03-10T20:05:59.079Z,17.20
2023-03-10T20:08:26.252Z,18.48
2023-03-10T20:10:53.324Z,17.88
2023-03-10T20:13:21.326Z,18.88
2023-03-10T20:15:48.750Z,18.80
2023-03-10T20:18:18.588Z,17.73
2023-03-10T20:20:45.796Z,19.02
2023-03-10T20:23:12.919Z,17.15
2023-03-10T20:25:41.310Z,18.67
2023-03-10T20:28:09.332Z,16.98
2023-03-10T20:30:37.498Z,18.23
2023-03-10T20:33:04.542Z,16.75
2023-03-10T20:35:33.737Z,17.45
2023-03-10T20:38:02.073Z,16.45
2023-03-10T20:40:29.508Z,16.20
2023-03-10T20:42:59.745Z,16.42
2023-03-10T20:45:27.362Z,15.98
2023-03-10T20:47:54.970Z,16.38
2023-03-10T20:50:22.005Z,13.80
2023-03-10T20:52:49.875Z,12.82
2023-03-10T20:55:23.371Z,9.73
2023-03-10T20:57:52.278Z,10.00
2023-03-10T21:00:22.305Z,10.45
2023-03-10T21:02:52.653Z,11.48
2023-03-10T21:05:21.074Z,10.43
2023-03-10T21:07:48.224Z,12.05
2023-03-10T21:10:17.038Z,11.73
2023-03-10T21:12:44.696Z,11.90
2023-03-10T21:15:13.997Z,12.07
2023-03-10T21:17:41.534Z,11.68
2023-03-10T21:20:09.192Z,11.32
2023-03-10T21:22:38.377Z,11.23
2023-03-10T21:25:07.940Z,12.00
2023-03-10T21:27:36.381Z,11.02
2023-03-10T21:30:07.978Z,10.40
2023-03-10T21:32:35.123Z,10.02
2023-03-10T21:35:02.551Z,10.15
2023-03-10T21:37:29.969Z,10.00
2023-03-10T21:39:58.011Z,10.85
2023-03-10T21:42:25.003Z,10.05
2023-03-10T21:44:54.546Z,9.65
2023-03-10T21:47:21.537Z,9.27
2023-03-10T21:49:48.552Z,9.30
2023-03-10T21:52:15.559Z,8.93
2023-03-10T21:54:43.506Z,10.25
2023-03-10T21:57:10.716Z,11.15
2023-03-10T21:59:38.630Z,10.32
2023-03-10T22:02:05.694Z,11.60
2023-03-10T22:04:33.121Z,10.88
2023-03-10T22:07:00.783Z,10.20
2023-03-10T22:09:28.485Z,9.48
2023-03-10T22:11:55.502Z,9.63
2023-03-10T22:14:24.430Z,10.05
2023-03-10T22:16:51.871Z,9.82
2023-03-10T22:19:19.719Z,9.02
2023-03-10T22:21:46.601Z,8.63
2023-03-10T22:24:13.981Z,8.95
2023-03-10T22:26:40.977Z,8.57
2023-03-10T22:29:07.951Z,8.57
2023-03-10T22:31:35.277Z,8.82
2023-03-10T22:34:02.201Z,7.10
2023-03-10T22:36:29.125Z,7.40
2023-03-10T22:38:56.158Z,6.95
2023-03-10T22:41:23.286Z,6.78
2023-03-10T22:43:51.731Z,7.63
2023-03-10T22:46:18.755Z,7.10
2023-03-10T22:48:45.941Z,7.82
2023-03-10T22:51:16.746Z,7.75
2023-03-10T22:53:47.068Z,8.80
2023-03-10T22:56:14.101Z,9.18
2023-03-10T22:58:41.192Z,9.68
2023-03-10T23:01:08.359Z,9.35
2023-03-10T23:03:36.040Z,9.65
2023-03-10T23:06:06.630Z,9.55
2023-03-10T23:08:37.587Z,8.15
2023-03-10T23:11:12.901Z,7.95
2023-03-10T23:13:40.255Z,7.88
2023-03-10T23:16:07.966Z,8.38
2023-03-10T23:18:35.021Z,8.10
2023-03-10T23:21:02.717Z,7.88
2023-03-10T23:23:29.728Z,7.93
2023-03-10T23:25:56.766Z,7.50
2023-03-10T23:28:24.023Z,8.10
2023-03-10T23:30:51.341Z,6.25
2023-03-10T23:33:21.933Z,6.00
2023-03-10T23:35:55.279Z,5.35
2023-03-10T23:38:23.985Z,6.05
2023-03-10T23:40:51.738Z,5.63
2023-03-10T23:43:18.724Z,4.57
2023-03-10T23:45:46.034Z,4.72
2023-03-10T23:48:16.172Z,5.88
2023-03-10T23:50:44.751Z,6.28
2023-03-10T23:53:13.577Z,6.57
2023-03-10T23:55:43.194Z,6.18
2023-03-10T23:58:11.036Z,8.45
